createdAt,value
2022-08-30T00:01:32.147Z,96842.81
2022-08-30T00:04:02.176Z,96846.38
2022-08-30T00:06:31.587Z,96854.69
2022-08-30T00:09:02.634Z,96848.50
2022-08-30T00:11:30.659Z,96847.84
2022-08-30T00:13:59.977Z,96852.84
2022-08-30T00:16:28.065Z,96854.16
2022-08-30T00:18:57.003Z,96853.47
2022-08-30T00:21:27.145Z,96860.16
2022-08-30T00:28:27.603Z,96853.94
2022-08-30T00:30:56.449Z,96856.63
2022-08-30T00:33:24.716Z,96863.31
2022-08-30T00:35:52.931Z,96858.28
2022-08-30T00:38:23.817Z,96858.59
2022-08-30T00:40:52.489Z,96858.59
2022-08-30T00:43:23.623Z,96855.44
2022-08-30T00:45:54.047Z,96856.41
2022-08-30T00:48:22.281Z,96858.56
2022-08-30T00:50:55.204Z,96854.22
2022-08-30T00:53:27.382Z,96860.03
2022-08-30T00:55:57.464Z,96861.19
2022-08-30T00:58:30.604Z,96867.19
2022-08-30T01:01:02.247Z,96865.72
2022-08-30T01:03:31.646Z,96862.97
2022-08-30T01:06:01.884Z,96873.66
2022-08-30T01:08:30.129Z,96871.31
2022-08-30T01:10:59.254Z,96870.81
2022-08-30T01:13:30.959Z,96874.94
2022-08-30T01:16:02.477Z,96872.91
2022-08-30T01:18:32.357Z,96866.72
2022-08-30T01:21:10.346Z,96857.03
2022-08-30T01:23:43.302Z,96860.84
2022-08-30T01:26:12.805Z,96866.03
2022-08-30T01:28:48.579Z,96861.66
2022-08-30T01:31:17.128Z,96857.81
2022-08-30T01:33:45.160Z,96869.09
2022-08-30T01:36:15.010Z,96874.91
2022-08-30T01:38:49.090Z,96871.25
2022-08-30T01:41:19.770Z,96867.50
2022-08-30T01:43:49.147Z,96870.84
2022-08-30T01:46:26.598Z,96861.78
2022-08-30T01:48:57.214Z,96875.31
2022-08-30T01:51:27.675Z,96875.47
2022-08-30T01:53:58.010Z,96872.25
2022-08-30T01:56:28.055Z,96877.59
2022-08-30T01:59:01.861Z,96873.56
2022-08-30T02:01:33.344Z,96877.41
2022-08-30T02:04:01.690Z,96876.69
2022-08-30T02:06:30.177Z,96873.50
2022-08-30T02:09:00.612Z,96864.66
2022-08-30T02:11:28.831Z,96871.97
2022-08-30T02:13:57.098Z,96864.97
2022-08-30T02:16:27.656Z,96862.13
2022-08-30T02:18:57.207Z,96870.00
2022-08-30T02:21:27.589Z,96871.97
2022-08-30T02:23:56.027Z,96870.59
2022-08-30T02:26:26.085Z,96870.75
2022-08-30T02:28:55.191Z,96860.78
2022-08-30T02:31:23.846Z,96860.59
2022-08-30T02:33:53.729Z,96857.25
2022-08-30T02:36:22.979Z,96860.94
2022-08-30T02:38:51.968Z,96859.09
2022-08-30T02:41:20.891Z,96854.91
2022-08-30T02:43:51.546Z,96859.53
2022-08-30T02:46:20.295Z,96851.25
2022-08-30T02:48:48.585Z,96856.03
2022-08-30T02:51:16.915Z,96857.19
2022-08-30T02:53:46.288Z,96847.50
2022-08-30T02:56:15.654Z,96842.72
2022-08-30T02:58:45.189Z,96835.84
2022-08-30T03:01:16.856Z,96833.31
2022-08-30T03:03:47.054Z,96833.88
2022-08-30T03:06:15.575Z,96828.16
2022-08-30T03:08:43.940Z,96832.50
2022-08-30T03:11:13.766Z,96828.69
2022-08-30T03:13:42.301Z,96829.44
2022-08-30T03:16:10.815Z,96821.81
2022-08-30T03:18:43.177Z,96823.47
2022-08-30T03:21:12.715Z,96826.78
2022-08-30T03:23:41.040Z,96828.63
2022-08-30T03:26:10.613Z,96827.38
2022-08-30T03:28:39.420Z,96826.03
2022-08-30T03:31:08.884Z,96822.69
2022-08-30T03:33:40.057Z,96828.63
2022-08-30T03:36:11.793Z,96824.88
2022-08-30T03:38:40.383Z,96821.38
2022-08-30T03:41:09.159Z,96824.19
2022-08-30T03:43:37.342Z,96827.19
2022-08-30T03:46:06.165Z,96824.50
2022-08-30T03:48:34.475Z,96825.78
2022-08-30T03:51:02.577Z,96831.56
2022-08-30T03:53:35.830Z,96825.03
2022-08-30T03:56:04.571Z,96823.63
2022-08-30T03:58:33.195Z,96821.97
2022-08-30T04:01:01.310Z,96826.34
2022-08-30T04:03:29.432Z,96821.16
2022-08-30T04:05:57.687Z,96821.63
2022-08-30T04:08:26.051Z,96820.63
2022-08-30T04:10:56.183Z,96826.25
2022-08-30T04:13:25.379Z,96823.75
2022-08-30T04:15:53.567Z,96827.38
2022-08-30T04:18:22.201Z,96825.03
2022-08-30T04:20:51.869Z,96827.31
2022-08-30T04:23:20.606Z,96826.63
2022-08-30T04:25:49.008Z,96839.81
2022-08-30T04:28:18.645Z,96836.72
2022-08-30T04:30:46.798Z,96838.72
2022-08-30T04:33:16.949Z,96827.44
2022-08-30T04:35:47.517Z,96837.28
2022-08-30T04:38:16.900Z,96835.06
2022-08-30T04:40:46.008Z,96832.69
2022-08-30T04:43:14.099Z,96834.06
2022-08-30T04:45:44.210Z,96832.53
2022-08-30T04:48:12.322Z,96841.28
2022-08-30T04:50:40.628Z,96853.44
2022-08-30T04:53:13.533Z,96857.13
2022-08-30T04:55:42.145Z,96852.19
2022-08-30T04:58:10.674Z,96857.50
2022-08-30T05:00:42.079Z,96860.16
2022-08-30T05:03:12.688Z,96864.22
2022-08-30T05:05:40.992Z,96869.56
2022-08-30T05:08:09.834Z,96867.13
2022-08-30T05:10:40.439Z,96873.00
2022-08-30T05:13:09.417Z,96876.75
2022-08-30T05:15:39.740Z,96881.63
2022-08-30T05:18:08.155Z,96873.44
2022-08-30T05:20:44.021Z,96879.31
2022-08-30T05:23:12.785Z,96883.25
2022-08-30T05:25:43.246Z,96881.09
2022-08-30T05:28:11.504Z,96880.81
2022-08-30T05:30:39.643Z,96875.88
2022-08-30T05:33:08.241Z,96866.56
2022-08-30T05:35:36.374Z,96861.63
2022-08-30T05:38:05.866Z,96873.97
2022-08-30T05:40:35.149Z,96871.84
2022-08-30T05:43:03.203Z,96863.16
2022-08-30T05:45:31.481Z,96859.16
2022-08-30T05:47:59.606Z,96853.38
2022-08-30T05:50:27.918Z,96861.94
2022-08-30T05:52:56.142Z,96864.13
2022-08-30T05:55:25.699Z,96863.50
2022-08-30T05:57:54.579Z,96867.88
2022-08-30T06:00:23.698Z,96875.09
2022-08-30T06:02:55.596Z,96875.88
2022-08-30T06:05:24.079Z,96877.75
2022-08-30T06:07:52.544Z,96891.47
2022-08-30T06:10:20.752Z,96879.13
2022-08-30T06:12:50.253Z,96876.03
2022-08-30T06:15:18.616Z,96876.94
2022-08-30T06:17:46.685Z,96881.41
2022-08-30T06:20:18.808Z,96882.91
2022-08-30T06:22:47.060Z,96881.78
2022-08-30T06:25:16.363Z,96876.88
2022-08-30T06:27:44.865Z,96867.22
2022-08-30T06:30:15.136Z,96867.25
2022-08-30T06:32:46.947Z,96860.44
2022-08-30T06:35:15.058Z,96875.34
2022-08-30T06:37:43.338Z,96865.72
2022-08-30T06:40:13.479Z,96866.56
2022-08-30T06:42:41.739Z,96867.09
2022-08-30T06:45:11.296Z,96860.81
2022-08-30T06:47:41.446Z,96858.16
2022-08-30T06:50:14.348Z,96856.31
2022-08-30T06:52:43.884Z,96857.84
2022-08-30T06:55:13.365Z,96856.69
2022-08-30T06:57:41.923Z,96868.25
2022-08-30T07:00:14.295Z,96867.25
2022-08-30T07:02:44.151Z,96868.56
2022-08-30T07:05:18.033Z,96873.44
2022-08-30T07:07:46.872Z,96875.94
2022-08-30T07:10:15.769Z,96870.09
2022-08-30T07:12:43.872Z,96869.91
2022-08-30T07:15:13.229Z,96869.56
2022-08-30T07:17:58.557Z,96865.69
2022-08-30T07:20:28.238Z,96866.97
2022-08-30T07:23:08.908Z,96869.66
2022-08-30T07:25:38.132Z,96869.44
2022-08-30T07:28:07.564Z,96870.75
2022-08-30T07:30:36.090Z,96877.09
2022-08-30T07:33:04.687Z,96874.06
2022-08-30T07:35:34.364Z,96874.53
2022-08-30T07:38:02.467Z,96873.22
2022-08-30T07:40:30.756Z,96869.19
2022-08-30T07:43:02.085Z,96864.63
2022-08-30T07:45:30.359Z,96865.91
2022-08-30T07:47:58.761Z,96872.88
2022-08-30T07:50:26.958Z,96874.31
2022-08-30T07:52:56.517Z,96876.09
2022-08-30T07:55:24.780Z,96870.19
2022-08-30T07:57:53.010Z,96873.97
2022-08-30T08:00:21.285Z,96874.91
2022-08-30T08:02:49.594Z,96871.38
2022-08-30T08:05:19.409Z,96873.44
2022-08-30T08:07:50.229Z,96873.72
2022-08-30T08:10:19.611Z,96881.44
2022-08-30T08:12:47.795Z,96873.19
2022-08-30T08:15:16.507Z,96878.56
2022-08-30T08:17:44.491Z,96880.81
2022-08-30T08:20:12.700Z,96877.56
2022-08-30T08:22:40.778Z,96869.69
2022-08-30T08:25:09.680Z,96869.63
2022-08-30T08:27:39.130Z,96871.66
2022-08-30T08:30:08.367Z,96870.00
2022-08-30T08:32:36.395Z,96861.50
2022-08-30T08:35:05.063Z,96865.28
2022-08-30T08:37:33.152Z,96864.56
2022-08-30T08:40:01.268Z,96870.03
2022-08-30T08:42:37.819Z,96866.59
2022-08-30T08:45:13.337Z,96867.50
2022-08-30T08:47:51.297Z,96870.00
2022-08-30T08:50:22.128Z,96867.94
2022-08-30T08:53:24.906Z,96866.94
2022-08-30T08:55:59.128Z,96865.84
2022-08-30T08:58:31.011Z,96860.34
2022-08-30T09:01:00.862Z,96868.44
2022-08-30T09:03:30.588Z,96869.44
2022-08-30T09:06:13.058Z,96870.16
2022-08-30T09:08:41.164Z,96862.91
2022-08-30T09:11:15.539Z,96858.09
2022-08-30T09:13:43.755Z,96858.16
2022-08-30T09:16:54.190Z,96856.53
2022-08-30T09:19:30.667Z,96858.34
2022-08-30T09:22:05.733Z,96854.47
2022-08-30T09:24:42.881Z,96848.16
2022-08-30T09:27:24.067Z,96853.44
2022-08-30T09:29:56.981Z,96849.78
2022-08-30T09:32:34.185Z,96847.91
2022-08-30T09:35:02.749Z,96846.09
2022-08-30T09:37:36.922Z,96843.25
2022-08-30T09:40:12.249Z,96844.06
2022-08-30T09:42:40.456Z,96828.13
2022-08-30T09:45:20.484Z,96824.66
2022-08-30T09:47:50.001Z,96826.75
2022-08-30T09:50:24.147Z,96826.97
2022-08-30T09:53:00.978Z,96828.84
2022-08-30T09:55:43.307Z,96822.69
2022-08-30T09:58:21.596Z,96824.72
2022-08-30T10:00:57.966Z,96822.25
2022-08-30T10:06:33.734Z,96812.63
2022-08-30T10:09:17.437Z,96817.78
2022-08-30T10:11:54.663Z,96808.06
2022-08-30T10:14:53.078Z,96809.94
2022-08-30T10:17:39.154Z,96812.50
2022-08-30T10:20:17.705Z,96806.88
2022-08-30T10:22:51.389Z,96799.41
2022-08-30T10:25:24.235Z,96792.72
2022-08-30T10:27:59.102Z,96795.25
2022-08-30T10:30:29.269Z,96797.13
2022-08-30T10:33:05.958Z,96791.94
2022-08-30T10:35:41.859Z,96791.72
2022-08-30T10:38:20.123Z,96790.28
2022-08-30T10:41:10.694Z,96787.19
2022-08-30T10:43:53.455Z,96783.25
2022-08-30T10:46:41.312Z,96783.63
2022-08-30T10:49:19.717Z,96788.63
2022-08-30T10:51:55.680Z,96787.81
2022-08-30T10:54:35.973Z,96770.13
2022-08-30T10:57:04.543Z,96779.91
2022-08-30T10:59:34.809Z,96773.06
2022-08-30T11:02:24.951Z,96783.47
2022-08-30T11:05:19.445Z,96776.41
2022-08-30T11:07:58.047Z,96783.88
2022-08-30T11:10:55.153Z,96774.31
2022-08-30T11:13:26.940Z,96782.63
2022-08-30T11:16:00.915Z,96774.72
2022-08-30T11:18:31.258Z,96773.69
2022-08-30T11:21:18.811Z,96769.31
2022-08-30T11:24:04.077Z,96776.41
2022-08-30T11:26:54.620Z,96768.09
2022-08-30T11:29:38.183Z,96775.16
2022-08-30T11:32:59.479Z,96769.13
2022-08-30T11:35:39.378Z,96773.47
2022-08-30T11:38:22.729Z,96780.56
2022-08-30T11:41:07.590Z,96775.75
2022-08-30T11:43:55.558Z,96783.44
2022-08-30T11:46:39.750Z,96769.31
2022-08-30T11:49:37.468Z,96774.28
2022-08-30T11:52:27.489Z,96779.50
2022-08-30T11:55:22.023Z,96776.97
2022-08-30T11:57:58.139Z,96776.78
2022-08-30T12:00:35.083Z,96773.88
2022-08-30T12:03:07.199Z,96779.25
2022-08-30T12:05:59.002Z,96764.88
2022-08-30T12:09:02.279Z,96763.41
2022-08-30T12:12:05.836Z,96764.63
2022-08-30T12:14:42.253Z,96764.00
2022-08-30T12:17:41.593Z,96763.78
2022-08-30T12:20:22.562Z,96761.66
2022-08-30T12:22:51.774Z,96762.91
2022-08-30T12:25:26.162Z,96753.72
2022-08-30T12:28:14.407Z,96751.59
2022-08-30T12:30:46.568Z,96751.09
2022-08-30T12:33:29.240Z,96755.88
2022-08-30T12:35:59.364Z,96748.66
2022-08-30T12:38:28.403Z,96751.75
2022-08-30T12:40:59.047Z,96744.09
2022-08-30T12:43:40.222Z,96748.25
2022-08-30T12:46:15.133Z,96743.72
2022-08-30T12:48:44.852Z,96738.31
2022-08-30T12:51:29.318Z,96735.16
2022-08-30T12:54:07.104Z,96732.28
2022-08-30T12:56:57.916Z,96727.84
2022-08-30T12:59:54.061Z,96730.69
2022-08-30T13:02:30.044Z,96730.69
2022-08-30T13:04:59.086Z,96718.97
2022-08-30T13:07:33.682Z,96716.44
2022-08-30T13:10:16.870Z,96712.22
2022-08-30T13:13:02.761Z,96714.34
2022-08-30T13:15:33.864Z,96701.56
2022-08-30T13:18:27.504Z,96702.84
2022-08-30T13:21:12.345Z,96699.28
2022-08-30T13:23:40.785Z,96696.91
2022-08-30T13:26:09.669Z,96692.38
2022-08-30T13:28:51.441Z,96692.19
2022-08-30T13:31:19.937Z,96694.88
2022-08-30T13:33:53.065Z,96682.41
2022-08-30T13:36:24.635Z,96683.06
2022-08-30T13:38:53.181Z,96681.63
2022-08-30T13:41:21.597Z,96679.34
2022-08-30T13:46:40.966Z,96672.53
2022-08-30T13:52:20.228Z,96673.38
2022-08-30T13:54:50.109Z,96665.09
2022-08-30T14:00:14.439Z,96665.56
2022-08-30T14:02:48.811Z,96662.44
2022-08-30T14:05:46.930Z,96655.81
2022-08-30T14:10:59.208Z,96649.56
2022-08-30T14:13:29.097Z,96658.72
2022-08-30T14:18:46.491Z,96648.75
2022-08-30T14:21:15.785Z,96656.03
2022-08-30T14:23:43.714Z,96653.16
2022-08-30T14:26:14.918Z,96649.63
2022-08-30T14:28:45.957Z,96648.19
2022-08-30T14:31:20.434Z,96636.09
2022-08-30T14:33:49.075Z,96640.44
2022-08-30T14:36:18.646Z,96639.59
2022-08-30T14:38:46.952Z,96633.13
2022-08-30T14:41:16.847Z,96636.66
2022-08-30T14:43:44.949Z,96627.72
2022-08-30T14:46:13.268Z,96633.56
2022-08-30T14:48:41.719Z,96635.19
2022-08-30T14:51:15.476Z,96631.81
2022-08-30T14:53:45.352Z,96627.63
2022-08-30T14:56:15.831Z,96626.75
2022-08-30T14:58:44.472Z,96637.19
2022-08-30T15:01:13.655Z,96635.09
2022-08-30T15:03:42.868Z,96627.00
2022-08-30T15:06:12.420Z,96635.13
2022-08-30T15:08:40.887Z,96637.59
2022-08-30T15:11:13.501Z,96639.50
2022-08-30T15:13:44.443Z,96632.03
2022-08-30T15:16:15.628Z,96635.78
2022-08-30T15:18:43.898Z,96633.91
2022-08-30T15:21:12.681Z,96624.72
2022-08-30T15:23:41.309Z,96629.56
2022-08-30T15:26:10.803Z,96633.06
2022-08-30T15:28:38.931Z,96627.41
2022-08-30T15:31:09.314Z,96622.59
2022-08-30T15:33:37.953Z,96624.84
2022-08-30T15:36:07.148Z,96623.38
2022-08-30T15:38:35.991Z,96611.69
2022-08-30T15:41:07.868Z,96620.59
2022-08-30T15:43:37.724Z,96617.47
2022-08-30T15:46:17.315Z,96614.34
2022-08-30T15:48:46.579Z,96612.50
2022-08-30T15:51:16.680Z,96603.16
2022-08-30T15:53:45.232Z,96603.81
2022-08-30T15:56:13.489Z,96608.03
2022-08-30T15:58:43.642Z,96601.16
2022-08-30T16:01:13.004Z,96598.88
2022-08-30T16:03:42.414Z,96603.28
2022-08-30T16:06:15.154Z,96593.22
2022-08-30T16:08:46.278Z,96597.44
2022-08-30T16:11:16.675Z,96590.19
2022-08-30T16:13:50.470Z,96603.53
2022-08-30T16:16:20.737Z,96595.88
2022-08-30T16:18:54.057Z,96596.06
2022-08-30T16:21:26.202Z,96601.91
2022-08-30T16:23:57.102Z,96600.47
2022-08-30T16:26:26.104Z,96599.03
2022-08-30T16:28:56.152Z,96599.47
2022-08-30T16:31:25.980Z,96596.97
2022-08-30T16:33:54.856Z,96597.16
2022-08-30T16:36:30.494Z,96586.56
2022-08-30T16:38:59.255Z,96593.00
2022-08-30T16:41:27.587Z,96583.47
2022-08-30T16:43:57.357Z,96588.47
2022-08-30T16:46:29.003Z,96580.34
2022-08-30T16:49:01.385Z,96579.53
2022-08-30T16:51:32.161Z,96584.31
2022-08-30T16:54:02.589Z,96589.13
2022-08-30T16:56:32.922Z,96584.94
2022-08-30T16:59:09.051Z,96582.69
2022-08-30T17:01:39.215Z,96587.28
2022-08-30T17:04:08.268Z,96583.94
2022-08-30T17:06:36.598Z,96584.41
2022-08-30T17:09:06.194Z,96588.34
2022-08-30T17:11:34.736Z,96590.03
2022-08-30T17:14:04.979Z,96591.53
2022-08-30T17:16:34.932Z,96598.59
2022-08-30T17:19:04.392Z,96598.78
2022-08-30T17:21:33.394Z,96598.59
2022-08-30T17:24:02.962Z,96609.66
2022-08-30T17:26:32.367Z,96618.41
2022-08-30T17:29:00.733Z,96619.00
2022-08-30T17:31:31.110Z,96614.22
2022-08-30T17:34:03.449Z,96616.75
2022-08-30T17:36:35.623Z,96616.50
2022-08-30T17:39:10.944Z,96624.22
2022-08-30T17:41:45.269Z,96622.16
2022-08-30T17:44:18.842Z,96622.78
2022-08-30T17:46:48.751Z,96626.31
2022-08-30T17:49:17.929Z,96625.91
2022-08-30T17:51:47.698Z,96630.88
2022-08-30T17:54:16.762Z,96635.25
2022-08-30T17:56:46.206Z,96635.06
2022-08-30T17:59:16.996Z,96625.06
2022-08-30T18:01:46.860Z,96632.34
2022-08-30T18:04:19.736Z,96634.66
2022-08-30T18:06:48.588Z,96637.06
2022-08-30T18:09:17.935Z,96635.84
2022-08-30T18:11:46.084Z,96637.91
2022-08-30T18:14:17.324Z,96643.72
2022-08-30T18:16:53.637Z,96640.78
2022-08-30T18:19:25.291Z,96642.66
2022-08-30T18:21:54.304Z,96645.34
2022-08-30T18:24:22.992Z,96642.03
2022-08-30T18:26:52.168Z,96653.44
2022-08-30T18:29:30.244Z,96651.34
2022-08-30T18:32:00.422Z,96653.63
2022-08-30T18:34:30.742Z,96654.41
2022-08-30T18:36:58.967Z,96658.97
2022-08-30T18:39:27.711Z,96657.72
2022-08-30T18:41:56.812Z,96666.44
2022-08-30T18:44:28.884Z,96671.81
2022-08-30T18:47:00.495Z,96668.47
2022-08-30T18:49:32.500Z,96663.50
2022-08-30T18:52:01.276Z,96667.97
2022-08-30T18:54:29.989Z,96667.97
2022-08-30T18:56:58.237Z,96672.94
2022-08-30T18:59:35.253Z,96684.31
2022-08-30T19:02:07.477Z,96675.59
2022-08-30T19:04:42.710Z,96677.47
2022-08-30T19:07:14.770Z,96672.50
2022-08-30T19:09:45.204Z,96672.03
2022-08-30T19:12:13.960Z,96679.50
2022-08-30T19:14:43.045Z,96683.59
2022-08-30T19:17:11.474Z,96683.81
2022-08-30T19:19:48.592Z,96681.31
2022-08-30T19:22:19.638Z,96691.03
2022-08-30T19:24:49.701Z,96693.94
2022-08-30T19:27:19.223Z,96695.16
2022-08-30T19:29:53.063Z,96698.03
2022-08-30T19:32:23.464Z,96700.94
2022-08-30T19:34:53.797Z,96704.22
2022-08-30T19:37:21.889Z,96701.72
2022-08-30T19:39:50.166Z,96698.59
2022-08-30T19:42:19.893Z,96700.03
2022-08-30T19:44:51.260Z,96702.91
2022-08-30T19:47:19.451Z,96698.75
2022-08-30T19:49:48.130Z,96705.16
2022-08-30T19:52:18.048Z,96708.44
2022-08-30T19:54:46.114Z,96705.13
2022-08-30T19:57:14.263Z,96707.16
2022-08-30T19:59:42.375Z,96709.22
2022-08-30T20:02:10.869Z,96708.41
2022-08-30T20:04:42.596Z,96715.16
2022-08-30T20:07:11.101Z,96702.09
2022-08-30T20:09:40.653Z,96709.53
2022-08-30T20:12:09.199Z,96710.13
2022-08-30T20:14:37.254Z,96701.38
2022-08-30T20:17:05.912Z,96708.00
2022-08-30T20:19:39.724Z,96716.47
2022-08-30T20:22:08.584Z,96700.69
2022-08-30T20:24:37.796Z,96708.34
2022-08-30T20:27:12.194Z,96708.50
2022-08-30T20:29:41.961Z,96709.91
2022-08-30T20:32:10.149Z,96710.38
2022-08-30T20:34:39.685Z,96702.06
2022-08-30T20:37:09.799Z,96702.25
2022-08-30T20:39:39.148Z,96705.31
2022-08-30T20:42:07.707Z,96692.25
2022-08-30T20:44:38.313Z,96689.75
2022-08-30T20:47:06.877Z,96691.63
2022-08-30T20:49:35.580Z,96686.22
2022-08-30T20:52:04.883Z,96684.75
2022-08-30T20:54:33.452Z,96683.28
2022-08-30T20:57:02.024Z,96677.91
2022-08-30T20:59:31.276Z,96669.19
2022-08-30T21:02:01.260Z,96678.28
2022-08-30T21:04:31.627Z,96680.53
2022-08-30T21:06:59.713Z,96686.75
2022-08-30T21:09:27.804Z,96675.16
2022-08-30T21:11:55.932Z,96682.75
2022-08-30T21:14:24.112Z,96680.06
2022-08-30T21:16:52.533Z,96683.78
2022-08-30T21:19:22.067Z,96689.19
2022-08-30T21:21:50.229Z,96683.78
2022-08-30T21:24:18.395Z,96684.16
2022-08-30T21:26:46.572Z,96685.19
2022-08-30T21:29:15.134Z,96684.38
2022-08-30T21:31:43.341Z,96679.00
2022-08-30T21:34:17.516Z,96684.16
2022-08-30T21:36:46.898Z,96683.53
2022-08-30T21:39:21.455Z,96682.69
2022-08-30T21:41:51.242Z,96685.59
2022-08-30T21:44:21.987Z,96684.72
2022-08-30T21:46:52.194Z,96683.25
2022-08-30T21:49:22.617Z,96678.91
2022-08-30T21:51:55.324Z,96688.00
2022-08-30T21:54:24.609Z,96690.06
2022-08-30T21:57:01.390Z,96693.59
2022-08-30T21:59:29.895Z,96697.50
2022-08-30T22:01:59.083Z,96694.81
2022-08-30T22:04:29.554Z,96701.19
2022-08-30T22:06:59.379Z,96698.88
2022-08-30T22:09:27.600Z,96699.94
2022-08-30T22:11:56.026Z,96703.59
2022-08-30T22:14:24.804Z,96701.94
2022-08-30T22:16:54.966Z,96698.38
2022-08-30T22:19:23.578Z,96697.38
2022-08-30T22:21:55.450Z,96702.94
2022-08-30T22:24:32.237Z,96694.88
2022-08-30T22:27:01.998Z,96699.44
2022-08-30T22:29:30.230Z,96704.16
2022-08-30T22:31:58.594Z,96703.50
2022-08-30T22:34:27.138Z,96700.63
2022-08-30T22:36:55.632Z,96703.50
2022-08-30T22:39:23.664Z,96711.41
2022-08-30T22:41:53.238Z,96706.41
2022-08-30T22:44:21.367Z,96699.34
2022-08-30T22:46:49.443Z,96714.47
2022-08-30T22:49:17.522Z,96708.44
2022-08-30T22:51:45.632Z,96701.03
2022-08-30T22:54:13.762Z,96705.75
2022-08-30T22:56:41.866Z,96705.75
2022-08-30T22:59:11.585Z,96708.44
2022-08-30T23:01:43.058Z,96703.91
2022-08-30T23:04:12.731Z,96710.50
2022-08-30T23:06:42.490Z,96710.50
2022-08-30T23:09:19.200Z,96714.19
2022-08-30T23:11:47.403Z,96714.41
2022-08-30T23:14:17.024Z,96713.75
2022-08-30T23:16:45.428Z,96717.47
2022-08-30T23:19:13.620Z,96714.13
2022-08-30T23:21:41.705Z,96719.50
2022-08-30T23:24:27.051Z,96724.25
2022-08-30T23:27:13.311Z,96728.31
2022-08-30T23:30:00.641Z,96727.50
2022-08-30T23:32:45.974Z,96722.03
2022-08-30T23:35:32.457Z,96719.50
2022-08-30T23:38:20.975Z,96718.84
2022-08-30T23:41:06.355Z,96726.31
2022-08-30T23:43:51.666Z,96721.75
2022-08-30T23:46:41.573Z,96726.66
2022-08-30T23:49:26.703Z,96717.13
2022-08-30T23:52:12.011Z,96714.44
2022-08-30T23:54:57.712Z,96723.69
2022-08-30T23:57:43.976Z,96715.38
